createdAt,value
2023-04-27T00:00:53.569Z,2.33
2023-04-27T00:02:26.787Z,1.10
2023-04-27T00:04:00.455Z,0.88
2023-04-27T00:05:36.271Z,1.77
2023-04-27T00:07:09.607Z,4.03
2023-04-27T00:08:44.376Z,4.03
2023-04-27T00:10:17.698Z,0.77
2023-04-27T00:11:51.263Z,1.08
2023-04-27T00:13:24.524Z,0.95
2023-04-27T00:14:56.609Z,1.35
2023-04-27T00:16:30.050Z,1.13
2023-04-27T00:18:03.512Z,1.48
2023-04-27T00:19:36.771Z,1.27
2023-04-27T00:21:09.035Z,1.40
2023-04-27T00:22:42.425Z,1.95
2023-04-27T00:24:17.077Z,2.78
2023-04-27T00:25:50.405Z,2.83
2023-04-27T00:27:23.518Z,1.17
2023-04-27T00:28:56.289Z,2.28
2023-04-27T00:30:31.067Z,1.38
2023-04-27T00:32:04.177Z,0.98
2023-04-27T00:33:37.617Z,1.10
2023-04-27T00:35:11.601Z,2.85
2023-04-27T00:36:44.920Z,1.45
2023-04-27T00:38:19.137Z,1.83
2023-04-27T00:39:53.696Z,1.75
2023-04-27T00:41:27.083Z,5.78
2023-04-27T00:43:00.513Z,1.92
2023-04-27T00:44:33.853Z,2.30
2023-04-27T00:46:08.442Z,1.52
2023-04-27T00:47:42.474Z,4.82
2023-04-27T00:49:15.213Z,2.47
2023-04-27T00:50:48.851Z,2.63
2023-04-27T00:52:22.122Z,1.58
2023-04-27T00:53:55.492Z,1.30
2023-04-27T00:55:30.467Z,3.92
2023-04-27T00:57:05.184Z,1.13
2023-04-27T00:58:38.377Z,1.00
2023-04-27T01:00:13.424Z,1.88
2023-04-27T01:01:47.630Z,1.17
2023-04-27T01:03:21.136Z,1.85
2023-04-27T01:04:54.587Z,1.00
2023-04-27T01:06:28.271Z,0.90
2023-04-27T01:08:01.746Z,1.13
2023-04-27T01:09:35.000Z,0.70
2023-04-27T01:11:09.510Z,1.25
2023-04-27T01:12:45.716Z,0.85
2023-04-27T01:14:19.348Z,1.30
2023-04-27T01:15:52.510Z,1.00
2023-04-27T01:17:25.708Z,2.08
2023-04-27T01:18:59.149Z,2.75
2023-04-27T01:20:32.697Z,1.90
2023-04-27T01:22:04.831Z,1.65
2023-04-27T01:23:39.421Z,2.92
2023-04-27T01:25:13.206Z,1.10
2023-04-27T01:26:46.415Z,1.48
2023-04-27T01:28:18.531Z,2.13
2023-04-27T01:29:51.806Z,2.22
2023-04-27T01:31:25.515Z,2.35
2023-04-27T01:33:00.542Z,3.10
2023-04-27T01:34:33.951Z,1.58
2023-04-27T01:36:07.111Z,1.83
2023-04-27T01:37:40.677Z,1.92
2023-04-27T01:39:15.464Z,3.67
2023-04-27T01:40:48.926Z,2.72
2023-04-27T01:42:22.023Z,1.95
2023-04-27T01:43:55.348Z,2.45
2023-04-27T01:45:28.604Z,3.33
2023-04-27T01:47:02.105Z,3.05
2023-04-27T01:48:34.768Z,2.28
2023-04-27T01:50:08.748Z,3.33
2023-04-27T01:51:42.050Z,2.33
2023-04-27T01:53:15.322Z,5.18
2023-04-27T01:54:49.842Z,3.47
2023-04-27T01:56:23.216Z,3.03
2023-04-27T01:57:56.638Z,2.20
2023-04-27T01:59:29.847Z,3.60
2023-04-27T02:01:03.996Z,3.10
2023-04-27T02:02:37.585Z,3.08
2023-04-27T02:04:14.050Z,2.65
2023-04-27T02:05:48.019Z,3.08
2023-04-27T02:07:21.397Z,4.03
2023-04-27T02:08:54.826Z,4.10
2023-04-27T02:10:29.798Z,3.78
2023-04-27T02:12:03.045Z,4.55
2023-04-27T02:13:37.377Z,4.57
2023-04-27T02:15:10.479Z,3.22
2023-04-27T02:16:44.699Z,3.65
2023-04-27T02:18:18.511Z,2.97
2023-04-27T02:19:51.663Z,2.50
2023-04-27T02:21:25.201Z,3.03
2023-04-27T02:22:58.492Z,3.95
2023-04-27T02:24:32.912Z,3.35
2023-04-27T02:26:08.661Z,3.20
2023-04-27T02:27:44.480Z,5.50
2023-04-27T02:29:18.662Z,5.45
2023-04-27T02:30:51.226Z,4.32
2023-04-27T02:32:24.584Z,5.22
2023-04-27T02:33:57.917Z,5.10
2023-04-27T02:35:32.688Z,3.95
2023-04-27T02:37:06.736Z,4.40
2023-04-27T02:38:39.846Z,3.78
2023-04-27T02:40:13.656Z,6.95
2023-04-27T02:41:48.332Z,6.07
2023-04-27T02:43:21.936Z,6.72
2023-04-27T02:44:55.573Z,4.50
2023-04-27T02:46:29.089Z,6.50
2023-04-27T02:48:02.434Z,5.35
2023-04-27T02:49:37.981Z,5.65
2023-04-27T02:51:10.487Z,6.85
2023-04-27T02:52:43.937Z,5.93
2023-04-27T02:54:17.209Z,6.03
2023-04-27T02:55:51.638Z,8.35
2023-04-27T02:57:26.301Z,6.53
2023-04-27T02:58:59.628Z,6.18
2023-04-27T03:00:33.139Z,6.63
2023-04-27T03:02:06.310Z,5.65
2023-04-27T03:03:39.679Z,7.78
2023-04-27T03:05:13.246Z,6.05
2023-04-27T03:06:46.729Z,6.88
2023-04-27T03:08:19.928Z,6.47
2023-04-27T03:09:52.993Z,5.78
2023-04-27T03:11:26.265Z,9.07
2023-04-27T03:13:00.974Z,4.70
2023-04-27T03:14:34.653Z,7.35
2023-04-27T03:16:08.615Z,7.47
2023-04-27T03:17:41.177Z,6.53
2023-04-27T03:19:14.789Z,6.05
2023-04-27T03:20:48.122Z,6.63
2023-04-27T03:22:20.560Z,5.28
2023-04-27T03:23:54.171Z,7.47
2023-04-27T03:25:29.662Z,8.85
2023-04-27T03:27:03.460Z,7.30
2023-04-27T03:28:38.721Z,7.38
2023-04-27T03:30:13.154Z,6.15
2023-04-27T03:31:46.464Z,7.22
2023-04-27T03:33:19.819Z,5.63
2023-04-27T03:34:53.418Z,4.80
2023-04-27T03:36:27.075Z,4.65
2023-04-27T03:38:00.339Z,5.03
2023-04-27T03:39:33.586Z,3.63
2023-04-27T03:41:06.803Z,4.65
2023-04-27T03:42:41.165Z,6.03
2023-04-27T03:44:16.275Z,3.60
2023-04-27T03:45:48.670Z,3.90
2023-04-27T03:47:22.075Z,1.65
2023-04-27T03:48:55.672Z,3.63
2023-04-27T03:50:30.265Z,2.92
2023-04-27T03:52:04.429Z,16.75
2023-04-27T03:53:37.572Z,3.67
2023-04-27T03:55:11.836Z,4.22
2023-04-27T03:56:47.963Z,3.72
2023-04-27T03:58:21.954Z,4.68
2023-04-27T04:00:17.159Z,1.52
2023-04-27T04:01:50.792Z,2.08
2023-04-27T04:03:24.205Z,1.90
2023-04-27T04:04:57.535Z,1.27
2023-04-27T04:06:31.344Z,2.08
2023-04-27T04:08:05.008Z,3.10
2023-04-27T04:09:38.313Z,2.83
2023-04-27T04:11:12.114Z,3.42
2023-04-27T04:12:44.668Z,2.90
2023-04-27T04:14:17.962Z,2.65
2023-04-27T04:16:02.232Z,2.97
2023-04-27T04:17:35.992Z,3.28
2023-04-27T04:19:09.781Z,5.90
2023-04-27T04:20:43.629Z,4.25
2023-04-27T04:22:16.711Z,4.32
2023-04-27T04:23:51.448Z,3.85
2023-04-27T04:25:26.332Z,5.68
2023-04-27T04:26:58.909Z,5.00
2023-04-27T04:28:32.176Z,3.47
2023-04-27T04:30:06.601Z,5.38
2023-04-27T04:31:43.247Z,6.90
2023-04-27T04:33:17.134Z,8.98
2023-04-27T04:34:51.738Z,15.40
2023-04-27T04:36:27.029Z,10.68
2023-04-27T04:38:02.041Z,7.78
2023-04-27T04:39:35.553Z,6.88
2023-04-27T04:41:10.583Z,9.40
2023-04-27T04:42:44.060Z,4.53
2023-04-27T04:44:18.068Z,5.10
2023-04-27T04:45:51.400Z,4.90
2023-04-27T04:47:25.975Z,2.33
2023-04-27T04:48:59.262Z,2.72
2023-04-27T04:50:32.611Z,2.75
2023-04-27T04:52:06.114Z,1.83
2023-04-27T04:53:39.463Z,1.98
2023-04-27T04:55:12.953Z,2.42
2023-04-27T04:56:46.419Z,2.60
2023-04-27T04:58:19.835Z,2.22
2023-04-27T04:59:54.476Z,3.05
2023-04-27T05:01:28.293Z,4.90
2023-04-27T05:03:03.194Z,2.85
2023-04-27T05:04:36.753Z,1.38
2023-04-27T05:06:10.217Z,5.05
2023-04-27T05:07:43.411Z,1.88
2023-04-27T05:09:16.676Z,2.63
2023-04-27T05:10:51.765Z,3.53
2023-04-27T05:12:24.978Z,2.60
2023-04-27T05:13:58.055Z,1.92
2023-04-27T05:15:31.398Z,3.28
2023-04-27T05:17:04.909Z,18.73
2023-04-27T05:18:39.528Z,20.90
2023-04-27T05:20:13.072Z,14.63
2023-04-27T05:21:46.480Z,7.97
2023-04-27T05:23:19.686Z,2.30
2023-04-27T05:24:53.140Z,1.83
2023-04-27T05:26:26.259Z,3.88
2023-04-27T05:27:59.859Z,3.00
2023-04-27T05:29:33.270Z,4.18
2023-04-27T05:31:06.582Z,4.75
2023-04-27T05:32:39.820Z,3.90
2023-04-27T05:34:14.471Z,5.90
2023-04-27T05:35:47.717Z,6.15
2023-04-27T05:37:20.826Z,4.63
2023-04-27T05:38:54.003Z,6.43
2023-04-27T05:40:27.664Z,8.20
2023-04-27T05:42:00.858Z,7.50
2023-04-27T05:43:35.586Z,7.25
2023-04-27T05:45:09.859Z,3.00
2023-04-27T05:46:43.589Z,5.03
2023-04-27T05:48:17.040Z,3.83
2023-04-27T05:49:53.823Z,4.15
2023-04-27T05:51:27.118Z,7.40
2023-04-27T05:53:01.085Z,5.20
2023-04-27T05:54:34.261Z,5.13
2023-04-27T05:56:08.187Z,7.45
2023-04-27T05:57:41.483Z,5.57
2023-04-27T05:59:16.749Z,2.85
2023-04-27T06:00:50.855Z,3.15
2023-04-27T06:02:24.201Z,3.05
2023-04-27T06:04:01.550Z,2.65
2023-04-27T06:05:36.862Z,2.63
2023-04-27T06:07:10.547Z,2.95
2023-04-27T06:08:43.785Z,2.55
2023-04-27T06:10:17.065Z,3.65
2023-04-27T06:11:50.743Z,2.55
2023-04-27T06:13:24.268Z,3.92
2023-04-27T06:14:57.407Z,4.78
2023-04-27T06:16:30.661Z,3.28
2023-04-27T06:18:04.501Z,8.07
2023-04-27T06:19:37.878Z,3.92
2023-04-27T06:21:12.427Z,4.35
2023-04-27T06:22:46.916Z,4.93
2023-04-27T06:24:20.230Z,5.20
2023-04-27T06:25:53.456Z,5.05
2023-04-27T06:27:26.700Z,6.32
2023-04-27T06:28:59.801Z,5.88
2023-04-27T06:30:33.293Z,5.72
2023-04-27T06:32:07.211Z,7.13
2023-04-27T06:33:40.495Z,7.43
2023-04-27T06:35:13.811Z,8.73
2023-04-27T06:36:48.476Z,4.65
2023-04-27T06:38:21.681Z,4.57
2023-04-27T06:39:54.805Z,3.25
2023-04-27T06:41:28.382Z,3.45
2023-04-27T06:43:01.649Z,2.95
2023-04-27T06:44:35.099Z,3.33
2023-04-27T06:46:08.211Z,3.30
2023-04-27T06:47:41.401Z,3.17
2023-04-27T06:49:15.040Z,5.30
2023-04-27T06:50:49.027Z,4.50
2023-04-27T06:52:23.762Z,7.53
2023-04-27T06:53:57.364Z,2.75
2023-04-27T06:55:30.746Z,6.10
2023-04-27T06:57:04.143Z,4.22
2023-04-27T06:58:37.784Z,3.60
2023-04-27T07:00:13.474Z,2.92
2023-04-27T07:01:46.928Z,3.42
2023-04-27T07:03:21.302Z,2.60
2023-04-27T07:04:54.731Z,2.63
2023-04-27T07:06:28.842Z,4.75
2023-04-27T07:08:07.698Z,2.72
2023-04-27T07:09:42.482Z,2.88
2023-04-27T07:11:16.595Z,5.13
2023-04-27T07:12:49.892Z,4.55
2023-04-27T07:14:23.660Z,3.78
2023-04-27T07:15:58.858Z,2.35
2023-04-27T07:17:32.176Z,4.40
2023-04-27T07:19:05.383Z,4.07
2023-04-27T07:20:38.981Z,5.72
2023-04-27T07:22:12.322Z,2.13
2023-04-27T07:23:47.140Z,4.20
2023-04-27T07:25:20.890Z,3.55
2023-04-27T07:26:54.279Z,3.35
2023-04-27T07:28:29.606Z,4.13
2023-04-27T07:30:02.811Z,4.22
2023-04-27T07:31:36.000Z,3.28
2023-04-27T07:33:10.049Z,3.75
2023-04-27T07:34:52.586Z,5.75
2023-04-27T07:36:27.074Z,2.67
2023-04-27T07:38:01.774Z,5.80
2023-04-27T07:39:36.849Z,11.32
2023-04-27T07:41:10.263Z,5.22
2023-04-27T07:42:43.554Z,5.38
2023-04-27T07:44:16.837Z,4.43
2023-04-27T07:45:50.415Z,5.18
2023-04-27T07:47:24.108Z,2.38
2023-04-27T07:48:59.900Z,4.75
2023-04-27T07:50:33.257Z,6.90
2023-04-27T07:52:07.276Z,5.13
2023-04-27T07:53:40.586Z,4.50
2023-04-27T07:55:15.168Z,5.28
2023-04-27T07:56:48.323Z,6.47
2023-04-27T07:58:21.792Z,3.95
2023-04-27T07:59:55.061Z,6.82
2023-04-27T08:01:28.212Z,3.83
2023-04-27T08:03:02.685Z,4.30
2023-04-27T08:04:36.705Z,4.60
2023-04-27T08:06:10.509Z,6.22
2023-04-27T08:07:44.729Z,2.60
2023-04-27T08:09:18.404Z,4.25
2023-04-27T08:10:53.418Z,6.22
2023-04-27T08:12:26.697Z,3.80
2023-04-27T08:13:59.839Z,6.85
2023-04-27T08:15:32.994Z,5.40
2023-04-27T08:17:06.458Z,6.40
2023-04-27T08:18:39.851Z,5.03
2023-04-27T08:20:13.591Z,10.48
2023-04-27T08:21:46.739Z,5.75
2023-04-27T08:23:20.136Z,6.70
2023-04-27T08:24:56.419Z,4.72
2023-04-27T08:26:31.009Z,5.32
2023-04-27T08:28:04.122Z,7.47
2023-04-27T08:29:37.370Z,6.45
2023-04-27T08:31:10.774Z,4.63
2023-04-27T08:32:44.166Z,6.30
2023-04-27T08:34:17.818Z,7.50
2023-04-27T08:35:51.080Z,4.60
2023-04-27T08:37:24.523Z,5.32
2023-04-27T08:38:57.620Z,7.40
2023-04-27T08:40:30.870Z,6.70
2023-04-27T08:42:11.853Z,8.15
2023-04-27T08:43:45.257Z,8.52
2023-04-27T08:45:19.952Z,7.28
2023-04-27T08:46:53.222Z,4.82
2023-04-27T08:48:26.950Z,6.10
2023-04-27T08:50:00.196Z,6.15
2023-04-27T08:51:34.075Z,6.50
2023-04-27T08:53:17.341Z,7.00
2023-04-27T08:54:50.667Z,6.10
2023-04-27T08:56:25.684Z,7.43
2023-04-27T08:58:01.489Z,5.15
2023-04-27T08:59:36.260Z,3.90
2023-04-27T09:01:09.962Z,6.85
2023-04-27T09:02:47.456Z,7.50
2023-04-27T09:04:20.988Z,6.43
2023-04-27T09:06:04.324Z,4.53
2023-04-27T09:07:38.584Z,6.70
2023-04-27T09:09:12.701Z,6.75
2023-04-27T09:10:47.595Z,6.90
2023-04-27T09:12:22.157Z,6.97
2023-04-27T09:13:57.087Z,5.75
2023-04-27T09:15:30.480Z,5.57
2023-04-27T09:17:03.633Z,6.70
2023-04-27T09:18:38.244Z,4.55
2023-04-27T09:20:13.488Z,5.25
2023-04-27T09:21:49.583Z,7.55
2023-04-27T09:23:30.061Z,12.93
2023-04-27T09:25:04.241Z,3.35
2023-04-27T09:26:52.838Z,5.57
2023-04-27T09:28:32.333Z,4.95
2023-04-27T09:30:16.050Z,5.05
2023-04-27T09:31:49.381Z,4.68
2023-04-27T09:33:27.191Z,7.38
2023-04-27T09:35:01.229Z,2.88
2023-04-27T09:36:35.029Z,12.95
2023-04-27T09:38:08.388Z,4.82
2023-04-27T09:39:43.007Z,8.35
2023-04-27T09:41:16.868Z,7.72
2023-04-27T09:42:51.329Z,5.18
2023-04-27T09:44:24.735Z,9.05
2023-04-27T09:46:00.104Z,5.15
2023-04-27T09:47:35.189Z,5.65
2023-04-27T09:49:08.424Z,5.18
2023-04-27T09:50:43.306Z,8.63
2023-04-27T09:52:16.687Z,5.78
2023-04-27T09:53:53.578Z,5.97
2023-04-27T09:55:32.170Z,6.70
2023-04-27T09:57:18.265Z,9.27
2023-04-27T09:59:07.166Z,4.53
2023-04-27T10:00:53.683Z,7.03
2023-04-27T10:02:35.005Z,7.32
2023-04-27T10:04:31.339Z,7.38
2023-04-27T10:06:42.137Z,29.98
2023-04-27T10:08:16.208Z,10.18
2023-04-27T10:09:51.423Z,4.85
2023-04-27T10:11:38.991Z,5.30
2023-04-27T10:13:23.867Z,10.50
2023-04-27T10:14:59.297Z,5.53
2023-04-27T10:16:45.137Z,6.40
2023-04-27T10:18:30.720Z,4.72
2023-04-27T10:20:07.405Z,5.05
2023-04-27T10:21:52.990Z,5.55
2023-04-27T10:23:27.036Z,3.60
2023-04-27T10:25:00.482Z,10.93
2023-04-27T10:26:35.760Z,13.43
2023-04-27T10:28:16.242Z,5.32
2023-04-27T10:29:50.521Z,3.55
2023-04-27T10:31:29.207Z,5.80
2023-04-27T10:33:07.328Z,6.07
2023-04-27T10:34:43.653Z,5.20
2023-04-27T10:36:16.915Z,3.97
2023-04-27T10:37:52.405Z,4.13
2023-04-27T10:39:47.172Z,4.05
2023-04-27T10:41:23.557Z,3.53
2023-04-27T10:42:57.112Z,7.13
2023-04-27T10:44:32.034Z,3.78
2023-04-27T10:46:12.823Z,5.30
2023-04-27T10:47:47.108Z,4.18
2023-04-27T10:49:21.353Z,5.82
2023-04-27T10:50:58.178Z,6.78
2023-04-27T10:52:31.875Z,8.05
2023-04-27T10:54:05.242Z,7.60
2023-04-27T10:55:38.943Z,5.53
2023-04-27T10:57:12.806Z,9.75
2023-04-27T10:58:49.201Z,3.90
2023-04-27T11:00:26.798Z,16.08
2023-04-27T11:02:00.275Z,3.63
2023-04-27T11:03:34.197Z,5.03
2023-04-27T11:05:19.145Z,11.10
2023-04-27T11:06:54.934Z,7.43
2023-04-27T11:08:28.459Z,6.55
2023-04-27T11:10:01.850Z,7.20
2023-04-27T11:11:35.406Z,15.30
2023-04-27T11:13:14.081Z,6.20
2023-04-27T11:14:48.066Z,4.82
2023-04-27T11:16:21.288Z,7.63
2023-04-27T11:18:06.293Z,9.48
2023-04-27T11:19:46.701Z,7.80
2023-04-27T11:21:21.845Z,6.97
2023-04-27T11:22:56.667Z,4.97
2023-04-27T11:24:30.197Z,11.73
2023-04-27T11:26:11.156Z,4.45
2023-04-27T11:27:45.838Z,10.05
2023-04-27T11:29:19.288Z,6.00
2023-04-27T11:31:01.987Z,8.55
2023-04-27T11:32:35.201Z,9.77
2023-04-27T11:34:09.020Z,6.93
2023-04-27T11:35:42.914Z,11.88
2023-04-27T11:37:24.896Z,5.45
2023-04-27T11:39:02.508Z,6.85
2023-04-27T11:40:37.739Z,5.05
2023-04-27T11:42:19.490Z,5.40
2023-04-27T11:43:52.641Z,5.90
2023-04-27T11:45:29.032Z,6.40
2023-04-27T11:47:02.744Z,5.68
2023-04-27T11:48:39.548Z,6.72
2023-04-27T11:50:12.779Z,6.80
2023-04-27T11:51:48.787Z,16.75
2023-04-27T11:53:31.660Z,6.35
2023-04-27T11:55:09.047Z,9.43
2023-04-27T11:56:43.614Z,6.35
2023-04-27T11:58:17.770Z,8.75
2023-04-27T11:59:51.150Z,8.00
2023-04-27T12:01:36.686Z,5.93
2023-04-27T12:03:10.857Z,4.75
2023-04-27T12:04:44.508Z,6.53
2023-04-27T12:07:55.385Z,9.70
2023-04-27T12:09:29.047Z,10.45
2023-04-27T12:11:03.718Z,4.60
2023-04-27T12:12:37.576Z,4.70
2023-04-27T12:14:11.590Z,4.55
2023-04-27T12:15:44.856Z,5.40
2023-04-27T12:17:18.095Z,2.55
2023-04-27T12:18:51.871Z,3.40
2023-04-27T12:20:25.219Z,7.78
2023-04-27T12:21:59.364Z,4.93
2023-04-27T12:23:32.502Z,6.32
2023-04-27T12:25:07.082Z,4.20
2023-04-27T12:26:41.954Z,7.90
2023-04-27T12:28:19.082Z,12.45
2023-04-27T12:29:54.212Z,5.05
2023-04-27T12:31:28.016Z,6.97
2023-04-27T12:33:02.575Z,4.68
2023-04-27T12:34:36.666Z,5.78
2023-04-27T12:36:10.130Z,6.78
2023-04-27T12:37:43.692Z,6.80
2023-04-27T12:39:19.855Z,5.13
2023-04-27T12:40:53.146Z,6.63
2023-04-27T12:42:27.787Z,3.53
2023-04-27T12:44:01.360Z,4.35
2023-04-27T12:45:34.704Z,6.38
2023-04-27T12:47:08.025Z,5.47
2023-04-27T12:48:41.414Z,6.28
2023-04-27T12:50:15.960Z,8.15
2023-04-27T12:51:52.050Z,7.65
2023-04-27T12:53:25.440Z,6.78
2023-04-27T12:54:59.376Z,5.75
2023-04-27T12:56:32.931Z,5.32
2023-04-27T12:58:07.695Z,5.22
2023-04-27T12:59:41.548Z,5.85
2023-04-27T13:01:15.738Z,6.55
2023-04-27T13:02:49.268Z,4.53
2023-04-27T13:04:23.214Z,4.00
2023-04-27T13:05:56.947Z,5.45
2023-04-27T13:07:30.229Z,7.63
2023-04-27T13:09:04.020Z,6.22
2023-04-27T13:10:37.667Z,48.08
2023-04-27T13:12:10.764Z,9.27
2023-04-27T13:13:45.619Z,10.65
2023-04-27T13:15:19.122Z,12.73
2023-04-27T13:16:52.593Z,10.80
2023-04-27T13:18:26.157Z,3.83
2023-04-27T13:19:59.348Z,8.18
2023-04-27T13:21:33.579Z,13.10
2023-04-27T13:23:07.114Z,7.55
2023-04-27T13:24:40.379Z,14.40
2023-04-27T13:26:13.951Z,31.38
2023-04-27T13:27:47.212Z,11.48
2023-04-27T13:29:22.076Z,4.72
2023-04-27T15:17:54.384Z,13.68
2023-04-27T15:19:27.727Z,18.23
2023-04-27T15:21:01.179Z,12.00
2023-04-27T15:22:34.397Z,9.55
2023-04-27T15:24:08.107Z,8.40
2023-04-27T15:25:41.246Z,5.40
2023-04-27T15:27:14.555Z,9.30
2023-04-27T15:28:47.700Z,9.20
2023-04-27T15:30:21.570Z,6.68
2023-04-27T15:31:54.901Z,7.68
2023-04-27T15:33:29.458Z,10.75
2023-04-27T15:35:02.681Z,5.63
2023-04-27T15:36:36.322Z,5.32
2023-04-27T15:38:12.187Z,3.63
2023-04-27T15:39:45.543Z,7.22
2023-04-27T15:41:19.071Z,7.32
2023-04-27T15:42:52.695Z,12.30
2023-04-27T15:44:25.874Z,10.10
2023-04-27T15:45:59.003Z,8.23
2023-04-27T15:47:32.247Z,10.43
2023-04-27T15:49:07.443Z,7.97
2023-04-27T15:50:40.790Z,14.27
2023-04-27T15:52:13.935Z,14.95
2023-04-27T15:53:47.060Z,13.88
2023-04-27T15:55:21.210Z,9.18
2023-04-27T15:56:54.351Z,5.85
2023-04-27T15:58:27.659Z,10.30
2023-04-27T16:00:00.904Z,7.28
2023-04-27T16:01:34.411Z,7.82
2023-04-27T16:03:11.217Z,5.95
2023-04-27T16:04:46.150Z,10.45
2023-04-27T16:06:19.275Z,13.10
2023-04-27T16:07:52.833Z,11.10
2023-04-27T16:09:26.266Z,6.25
2023-04-27T16:10:59.644Z,11.98
2023-04-27T16:12:33.081Z,5.93
2023-04-27T16:14:06.691Z,5.95
2023-04-27T16:15:39.870Z,6.65
2023-04-27T16:17:13.330Z,10.50
2023-04-27T16:18:46.787Z,4.95
2023-04-27T16:20:22.814Z,4.45
2023-04-27T16:21:55.976Z,6.20
2023-04-27T16:23:29.572Z,4.13
2023-04-27T16:25:03.403Z,5.78
2023-04-27T16:26:36.790Z,4.45
2023-04-27T16:28:10.006Z,9.15
2023-04-27T16:29:43.283Z,4.97
2023-04-27T16:31:16.642Z,6.68
2023-04-27T16:32:50.414Z,3.35
2023-04-27T16:34:23.628Z,5.60
2023-04-27T16:35:58.141Z,5.93
2023-04-27T16:37:31.289Z,3.97
2023-04-27T16:39:05.282Z,4.78
2023-04-27T16:40:38.547Z,6.03
2023-04-27T16:42:13.369Z,4.88
2023-04-27T16:43:46.636Z,5.05
2023-04-27T16:45:20.191Z,14.48
2023-04-27T16:46:53.729Z,12.40
2023-04-27T16:48:27.525Z,14.52
2023-04-27T16:50:00.800Z,9.32
2023-04-27T16:51:35.885Z,10.88
2023-04-27T16:53:10.805Z,9.50
2023-04-27T16:54:44.273Z,26.77
2023-04-27T16:56:27.229Z,7.85
2023-04-27T16:58:02.103Z,14.43
2023-04-27T16:59:35.383Z,15.63
2023-04-27T17:01:08.640Z,8.65
2023-04-27T17:02:43.713Z,20.75
2023-04-27T17:04:17.514Z,57.65
2023-04-27T17:05:51.288Z,35.47
2023-04-27T17:07:28.521Z,39.00
2023-04-27T17:09:03.129Z,44.92
2023-04-27T17:10:37.131Z,55.33
2023-04-27T17:12:13.431Z,67.45
2023-04-27T17:13:46.823Z,51.85
2023-04-27T17:15:20.078Z,40.70
2023-04-27T17:16:53.259Z,55.35
2023-04-27T17:18:26.565Z,58.72
2023-04-27T17:19:59.963Z,23.13
2023-04-27T17:21:34.078Z,32.67
2023-04-27T17:23:08.594Z,58.00
2023-04-27T17:24:41.810Z,34.25
2023-04-27T17:26:16.069Z,38.13
2023-04-27T17:27:49.446Z,30.10
2023-04-27T17:29:22.895Z,24.88
2023-04-27T17:30:56.032Z,24.00
2023-04-27T17:32:29.181Z,17.13
2023-04-27T17:34:03.746Z,25.70
2023-04-27T17:35:36.958Z,12.55
2023-04-27T17:37:10.186Z,13.48
2023-04-27T17:38:44.671Z,12.15
2023-04-27T17:40:20.849Z,14.10
2023-04-27T17:41:54.619Z,16.50
2023-04-27T17:43:27.744Z,10.98
2023-04-27T17:45:00.830Z,14.90
2023-04-27T17:46:34.353Z,10.77
2023-04-27T17:48:08.074Z,9.10
2023-04-27T17:49:41.223Z,13.00
2023-04-27T17:51:15.869Z,9.77
2023-04-27T17:52:51.172Z,16.98
2023-04-27T17:54:26.927Z,13.98
2023-04-27T17:56:01.646Z,12.32
2023-04-27T17:57:34.805Z,7.43
2023-04-27T17:59:09.094Z,9.05
2023-04-27T18:00:43.540Z,8.10
2023-04-27T18:02:16.881Z,5.55
2023-04-27T18:03:50.628Z,5.65
2023-04-27T18:05:24.004Z,13.18
2023-04-27T18:06:57.304Z,7.47
2023-04-27T18:08:30.503Z,7.70
2023-04-27T18:10:05.385Z,7.03
2023-04-27T18:11:38.608Z,11.45
2023-04-27T18:13:12.160Z,10.75
2023-04-27T18:14:45.567Z,10.70
2023-04-27T18:16:18.814Z,8.30
2023-04-27T18:17:52.357Z,12.63
2023-04-27T18:19:25.746Z,11.02
2023-04-27T18:20:58.996Z,14.88
2023-04-27T18:22:32.135Z,20.77
2023-04-27T18:24:06.195Z,11.07
2023-04-27T18:25:40.750Z,13.30
2023-04-27T18:27:16.568Z,55.60
2023-04-27T18:28:49.673Z,19.05
2023-04-27T18:30:23.565Z,23.35
2023-04-27T18:31:58.522Z,26.13
2023-04-27T18:33:31.938Z,29.95
2023-04-27T18:35:05.755Z,26.92
2023-04-27T18:36:39.003Z,26.95
2023-04-27T18:38:12.096Z,25.02
2023-04-27T18:39:45.382Z,31.67
2023-04-27T18:41:19.984Z,26.27
2023-04-27T18:42:54.292Z,23.15
2023-04-27T18:44:27.632Z,24.08
2023-04-27T18:46:00.790Z,23.58
2023-04-27T18:47:34.044Z,22.70
2023-04-27T18:49:07.581Z,21.55
2023-04-27T18:50:40.832Z,20.58
2023-04-27T18:52:13.984Z,24.65
2023-04-27T18:53:47.185Z,22.80
2023-04-27T18:55:20.696Z,16.88
2023-04-27T18:56:56.010Z,12.18
2023-04-27T18:58:29.262Z,15.10
2023-04-27T19:00:02.429Z,14.18
2023-04-27T19:01:36.795Z,13.43
2023-04-27T19:03:10.299Z,18.13
2023-04-27T19:04:49.052Z,15.75
2023-04-27T19:06:30.342Z,22.65
2023-04-27T19:08:04.278Z,14.07
2023-04-27T19:09:39.147Z,12.55
2023-04-27T19:11:12.627Z,16.88
2023-04-27T19:12:47.285Z,13.30
2023-04-27T19:14:20.894Z,17.52
2023-04-27T19:15:54.101Z,13.32
2023-04-27T19:17:27.414Z,10.00
2023-04-27T19:19:01.437Z,17.05
2023-04-27T19:20:34.665Z,11.93
2023-04-27T19:22:08.323Z,11.63
2023-04-27T19:23:41.594Z,12.73
2023-04-27T19:25:14.888Z,9.38
2023-04-27T19:26:48.718Z,10.32
2023-04-27T19:28:23.866Z,17.05
2023-04-27T19:29:58.704Z,8.40
2023-04-27T19:31:31.975Z,9.77
2023-04-27T19:33:05.607Z,8.07
2023-04-27T19:34:38.977Z,7.53
2023-04-27T19:36:12.108Z,14.27
2023-04-27T19:37:45.243Z,8.55
2023-04-27T19:39:20.956Z,9.98
2023-04-27T19:40:54.224Z,12.25
2023-04-27T19:42:27.342Z,13.70
2023-04-27T19:44:01.861Z,16.25
2023-04-27T19:45:35.488Z,8.30
2023-04-27T19:47:10.896Z,9.10
2023-04-27T19:48:44.146Z,11.30
2023-04-27T19:50:17.301Z,11.85
2023-04-27T19:51:50.538Z,8.98
2023-04-27T19:53:23.834Z,11.77
2023-04-27T19:54:57.748Z,8.50
2023-04-27T19:56:30.997Z,10.93
2023-04-27T19:58:04.373Z,11.15
2023-04-27T19:59:38.270Z,11.02
2023-04-27T20:01:13.013Z,15.13
2023-04-27T20:02:47.013Z,15.10
2023-04-27T20:04:21.137Z,12.52
2023-04-27T20:05:55.058Z,14.50
2023-04-27T20:07:28.316Z,12.23
2023-04-27T20:09:01.582Z,14.98
2023-04-27T20:10:35.007Z,10.43
2023-04-27T20:12:15.710Z,16.05
2023-04-27T20:13:57.065Z,22.17
2023-04-27T20:15:31.578Z,19.52
2023-04-27T20:17:05.271Z,21.50
2023-04-27T20:18:38.466Z,19.13
2023-04-27T20:20:12.418Z,10.48
2023-04-27T20:21:45.627Z,15.35
2023-04-27T20:23:18.800Z,13.27
2023-04-27T20:24:52.145Z,7.00
2023-04-27T20:26:26.187Z,6.50
2023-04-27T20:27:59.243Z,7.65
2023-04-27T20:29:32.876Z,5.07
2023-04-27T20:31:07.639Z,6.75
2023-04-27T20:32:40.831Z,6.90
2023-04-27T20:34:14.150Z,5.65
2023-04-27T20:35:48.590Z,8.18
2023-04-27T20:37:23.380Z,2.65
2023-04-27T20:38:57.644Z,2.80
2023-04-27T20:40:30.889Z,2.53
2023-04-27T20:42:03.984Z,4.30
2023-04-27T20:43:40.001Z,3.65
2023-04-27T20:45:13.357Z,2.88
2023-04-27T20:46:48.250Z,3.10
2023-04-27T20:48:21.471Z,2.15
2023-04-27T20:49:55.159Z,2.67
2023-04-27T20:51:28.267Z,1.67
2023-04-27T20:53:01.504Z,2.28
2023-04-27T20:54:34.690Z,4.28
2023-04-27T20:56:09.195Z,3.28
2023-04-27T20:57:42.339Z,3.88
2023-04-27T20:59:15.580Z,3.10
2023-04-27T21:00:48.726Z,4.18
2023-04-27T21:02:24.027Z,6.35
2023-04-27T21:03:57.410Z,2.28
2023-04-27T21:05:31.661Z,3.42
2023-04-27T21:07:04.910Z,2.85
2023-04-27T21:08:38.854Z,2.85
2023-04-27T21:10:12.891Z,1.20
2023-04-27T21:11:46.019Z,6.47
2023-04-27T21:13:19.699Z,3.55
2023-04-27T21:14:52.957Z,3.75
2023-04-27T21:16:26.176Z,4.75
2023-04-27T21:18:00.978Z,1.73
2023-04-27T21:19:34.200Z,4.05
2023-04-27T21:21:07.656Z,3.92
2023-04-27T21:22:40.994Z,2.28
2023-04-27T21:24:14.174Z,3.28
2023-04-27T21:25:47.831Z,4.50
2023-04-27T21:27:21.356Z,3.40
2023-04-27T21:28:54.465Z,2.65
2023-04-27T21:30:27.808Z,3.28
2023-04-27T21:32:01.108Z,2.28
2023-04-27T21:33:35.817Z,2.10
2023-04-27T21:35:10.156Z,2.10
2023-04-27T21:36:43.426Z,2.40
2023-04-27T21:38:16.776Z,2.55
2023-04-27T21:39:50.139Z,2.25
2023-04-27T21:41:22.342Z,2.53
2023-04-27T21:42:55.897Z,2.47
2023-04-27T21:44:29.067Z,3.28
2023-04-27T21:46:02.649Z,1.13
2023-04-27T21:47:35.815Z,2.65
2023-04-27T21:49:10.469Z,1.30
2023-04-27T21:50:43.884Z,2.67
2023-04-27T21:52:16.160Z,2.50
2023-04-27T21:53:49.307Z,1.83
2023-04-27T21:55:21.503Z,1.63
2023-04-27T21:56:54.638Z,2.47
2023-04-27T21:58:28.651Z,3.47
2023-04-27T22:00:01.865Z,3.05
2023-04-27T22:01:35.041Z,3.67
2023-04-27T22:03:09.078Z,2.42
2023-04-27T22:04:43.747Z,1.80
2023-04-27T22:06:17.505Z,2.30
2023-04-27T22:07:51.525Z,3.08
2023-04-27T22:09:24.736Z,3.05
2023-04-27T22:10:58.284Z,4.43
2023-04-27T22:12:31.587Z,4.80
2023-04-27T22:14:04.734Z,2.58
2023-04-27T22:15:37.105Z,5.63
2023-04-27T22:17:12.730Z,2.42
2023-04-27T22:18:45.971Z,4.00
2023-04-27T22:20:21.075Z,3.35
2023-04-27T22:21:54.500Z,1.75
2023-04-27T22:23:27.923Z,2.15
2023-04-27T22:25:00.059Z,2.63
2023-04-27T22:26:33.210Z,5.63
2023-04-27T22:28:06.551Z,3.03
2023-04-27T22:29:40.025Z,1.15
2023-04-27T22:31:13.331Z,2.22
2023-04-27T22:32:46.605Z,2.78
2023-04-27T22:34:19.871Z,1.75
2023-04-27T22:35:54.936Z,1.77
2023-04-27T22:37:29.774Z,2.78